sensor_id;sensor_type;location;lat;lon;timestamp;P1;durP1;ratioP1;P2;durP2;ratioP2
59145;SDS011;44928;53.074;6.646;2023-06-19T00:00:09;9.85;;;6.07;;
59145;SDS011;44928;53.074;6.646;2023-06-19T00:02:40;9.55;;;6.35;;
59145;SDS011;44928;53.074;6.646;2023-06-19T00:05:07;11.52;;;6.18;;
59145;SDS011;44928;53.074;6.646;2023-06-19T00:07:34;10.82;;;5.95;;
59145;SDS011;44928;53.074;6.646;2023-06-19T00:10:03;10.15;;;5.97;;
59145;SDS011;44928;53.074;6.646;2023-06-19T00:12:30;9.63;;;5.90;;
59145;SDS011;44928;53.074;6.646;2023-06-19T00:14:55;9.50;;;6.10;;
59145;SDS011;44928;53.074;6.646;2023-06-19T00:17:21;9.95;;;5.55;;
59145;SDS011;44928;53.074;6.646;2023-06-19T00:19:51;10.63;;;5.43;;
59145;SDS011;44928;53.074;6.646;2023-06-19T00:22:17;8.48;;;5.72;;
59145;SDS011;44928;53.074;6.646;2023-06-19T00:24:42;9.68;;;5.43;;
59145;SDS011;44928;53.074;6.646;2023-06-19T00:27:08;9.93;;;5.40;;
59145;SDS011;44928;53.074;6.646;2023-06-19T00:29:34;9.07;;;5.63;;
59145;SDS011;44928;53.074;6.646;2023-06-19T00:32:00;9.07;;;5.70;;
59145;SDS011;44928;53.074;6.646;2023-06-19T00:34:26;9.25;;;5.68;;
59145;SDS011;44928;53.074;6.646;2023-06-19T00:36:53;8.85;;;5.65;;
59145;SDS011;44928;53.074;6.646;2023-06-19T00:39:22;9.43;;;5.45;;
59145;SDS011;44928;53.074;6.646;2023-06-19T00:41:50;7.90;;;4.97;;
59145;SDS011;44928;53.074;6.646;2023-06-19T00:44:17;8.93;;;5.63;;
59145;SDS011;44928;53.074;6.646;2023-06-19T00:46:43;10.20;;;5.18;;
59145;SDS011;44928;53.074;6.646;2023-06-19T00:49:09;9.63;;;5.93;;
59145;SDS011;44928;53.074;6.646;2023-06-19T00:51:35;9.43;;;5.97;;
59145;SDS011;44928;53.074;6.646;2023-06-19T00:54:01;10.07;;;6.32;;
59145;SDS011;44928;53.074;6.646;2023-06-19T00:56:27;9.07;;;5.72;;
59145;SDS011;44928;53.074;6.646;2023-06-19T00:58:53;11.50;;;5.80;;
59145;SDS011;44928;53.074;6.646;2023-06-19T01:01:20;10.70;;;5.60;;
59145;SDS011;44928;53.074;6.646;2023-06-19T01:03:49;9.63;;;5.72;;
59145;SDS011;44928;53.074;6.646;2023-06-19T01:06:22;8.77;;;5.55;;
59145;SDS011;44928;53.074;6.646;2023-06-19T01:09:07;10.77;;;6.28;;
59145;SDS011;44928;53.074;6.646;2023-06-19T01:11:58;10.20;;;6.15;;
59145;SDS011;44928;53.074;6.646;2023-06-19T01:14:31;9.75;;;5.57;;
59145;SDS011;44928;53.074;6.646;2023-06-19T01:17:03;8.85;;;5.55;;
59145;SDS011;44928;53.074;6.646;2023-06-19T01:19:29;8.88;;;5.18;;
59145;SDS011;44928;53.074;6.646;2023-06-19T01:21:55;10.63;;;5.85;;
59145;SDS011;44928;53.074;6.646;2023-06-19T01:24:21;9.55;;;5.65;;
59145;SDS011;44928;53.074;6.646;2023-06-19T01:26:46;10.18;;;5.82;;
59145;SDS011;44928;53.074;6.646;2023-06-19T01:29:15;9.82;;;5.55;;
59145;SDS011;44928;53.074;6.646;2023-06-19T01:34:34;9.93;;;5.47;;
59145;SDS011;44928;53.074;6.646;2023-06-19T01:37:01;8.80;;;5.40;;
59145;SDS011;44928;53.074;6.646;2023-06-19T01:39:30;10.07;;;5.72;;
59145;SDS011;44928;53.074;6.646;2023-06-19T01:41:57;9.65;;;5.75;;
59145;SDS011;44928;53.074;6.646;2023-06-19T01:44:24;11.10;;;5.78;;
59145;SDS011;44928;53.074;6.646;2023-06-19T01:46:51;10.10;;;5.80;;
59145;SDS011;44928;53.074;6.646;2023-06-19T01:49:17;10.73;;;5.93;;
59145;SDS011;44928;53.074;6.646;2023-06-19T01:51:43;9.68;;;5.85;;
59145;SDS011;44928;53.074;6.646;2023-06-19T01:54:08;8.85;;;5.57;;
59145;SDS011;44928;53.074;6.646;2023-06-19T01:56:34;9.32;;;5.30;;
59145;SDS011;44928;53.074;6.646;2023-06-19T01:59:01;9.40;;;5.68;;
59145;SDS011;44928;53.074;6.646;2023-06-19T02:01:27;10.10;;;5.85;;
59145;SDS011;44928;53.074;6.646;2023-06-19T02:03:52;9.65;;;5.78;;
59145;SDS011;44928;53.074;6.646;2023-06-19T02:06:18;9.27;;;5.70;;
59145;SDS011;44928;53.074;6.646;2023-06-19T02:08:44;9.10;;;5.45;;
59145;SDS011;44928;53.074;6.646;2023-06-19T02:11:10;9.57;;;5.65;;
59145;SDS011;44928;53.074;6.646;2023-06-19T02:13:35;9.82;;;5.70;;
59145;SDS011;44928;53.074;6.646;2023-06-19T02:16:01;9.32;;;5.78;;
59145;SDS011;44928;53.074;6.646;2023-06-19T02:18:27;9.25;;;5.68;;
59145;SDS011;44928;53.074;6.646;2023-06-19T02:20:52;9.20;;;5.88;;
59145;SDS011;44928;53.074;6.646;2023-06-19T02:23:18;8.70;;;5.60;;
59145;SDS011;44928;53.074;6.646;2023-06-19T02:25:44;9.32;;;5.70;;
59145;SDS011;44928;53.074;6.646;2023-06-19T02:28:09;10.20;;;5.80;;
59145;SDS011;44928;53.074;6.646;2023-06-19T02:30:35;10.23;;;5.75;;
59145;SDS011;44928;53.074;6.646;2023-06-19T02:33:01;9.35;;;5.47;;
59145;SDS011;44928;53.074;6.646;2023-06-19T02:35:27;9.70;;;6.05;;
59145;SDS011;44928;53.074;6.646;2023-06-19T02:37:52;8.95;;;5.68;;
59145;SDS011;44928;53.074;6.646;2023-06-19T02:40:18;9.68;;;5.97;;
59145;SDS011;44928;53.074;6.646;2023-06-19T02:42:44;10.50;;;6.20;;
59145;SDS011;44928;53.074;6.646;2023-06-19T02:45:09;10.15;;;6.35;;
59145;SDS011;44928;53.074;6.646;2023-06-19T02:47:35;10.25;;;6.20;;
59145;SDS011;44928;53.074;6.646;2023-06-19T02:50:02;10.05;;;5.93;;
59145;SDS011;44928;53.074;6.646;2023-06-19T02:52:29;9.98;;;5.95;;
59145;SDS011;44928;53.074;6.646;2023-06-19T02:54:55;10.20;;;6.10;;
59145;SDS011;44928;53.074;6.646;2023-06-19T02:57:21;10.85;;;5.85;;
59145;SDS011;44928;53.074;6.646;2023-06-19T02:59:47;9.23;;;6.13;;
59145;SDS011;44928;53.074;6.646;2023-06-19T03:02:13;10.93;;;6.00;;
59145;SDS011;44928;53.074;6.646;2023-06-19T03:04:39;10.43;;;6.13;;
59145;SDS011;44928;53.074;6.646;2023-06-19T03:07:06;12.68;;;6.38;;
59145;SDS011;44928;53.074;6.646;2023-06-19T03:09:32;9.63;;;6.00;;
59145;SDS011;44928;53.074;6.646;2023-06-19T03:11:57;9.15;;;5.82;;
59145;SDS011;44928;53.074;6.646;2023-06-19T03:14:23;9.85;;;6.07;;
59145;SDS011;44928;53.074;6.646;2023-06-19T03:16:49;9.68;;;6.43;;
59145;SDS011;44928;53.074;6.646;2023-06-19T03:19:14;13.45;;;6.55;;
59145;SDS011;44928;53.074;6.646;2023-06-19T03:21:40;15.70;;;6.65;;
59145;SDS011;44928;53.074;6.646;2023-06-19T03:24:06;12.90;;;6.55;;
59145;SDS011;44928;53.074;6.646;2023-06-19T03:26:31;11.13;;;7.05;;
59145;SDS011;44928;53.074;6.646;2023-06-19T03:28:57;12.15;;;5.95;;
59145;SDS011;44928;53.074;6.646;2023-06-19T03:31:23;14.05;;;5.72;;
59145;SDS011;44928;53.074;6.646;2023-06-19T03:33:49;10.65;;;6.22;;
59145;SDS011;44928;53.074;6.646;2023-06-19T03:36:14;11.23;;;6.07;;
59145;SDS011;44928;53.074;6.646;2023-06-19T03:38:40;9.88;;;5.70;;
59145;SDS011;44928;53.074;6.646;2023-06-19T03:41:06;10.93;;;6.25;;
59145;SDS011;44928;53.074;6.646;2023-06-19T03:43:32;9.73;;;6.03;;
59145;SDS011;44928;53.074;6.646;2023-06-19T03:45:57;9.63;;;6.75;;
59145;SDS011;44928;53.074;6.646;2023-06-19T03:48:23;10.63;;;6.20;;
59145;SDS011;44928;53.074;6.646;2023-06-19T03:50:49;10.05;;;6.10;;
59145;SDS011;44928;53.074;6.646;2023-06-19T03:53:14;10.07;;;5.93;;
59145;SDS011;44928;53.074;6.646;2023-06-19T03:55:40;10.52;;;5.82;;
59145;SDS011;44928;53.074;6.646;2023-06-19T03:58:06;10.13;;;5.45;;
59145;SDS011;44928;53.074;6.646;2023-06-19T04:00:32;9.98;;;5.57;;
59145;SDS011;44928;53.074;6.646;2023-06-19T04:02:58;10.90;;;5.38;;
59145;SDS011;44928;53.074;6.646;2023-06-19T04:05:23;9.13;;;5.00;;
59145;SDS011;44928;53.074;6.646;2023-06-19T04:07:49;9.90;;;5.40;;
59145;SDS011;44928;53.074;6.646;2023-06-19T04:10:15;9.82;;;4.60;;
59145;SDS011;44928;53.074;6.646;2023-06-19T04:12:41;9.38;;;4.60;;
59145;SDS011;44928;53.074;6.646;2023-06-19T04:15:07;8.20;;;4.60;;
59145;SDS011;44928;53.074;6.646;2023-06-19T04:17:33;8.52;;;4.60;;
59145;SDS011;44928;53.074;6.646;2023-06-19T04:19:59;7.97;;;4.03;;
59145;SDS011;44928;53.074;6.646;2023-06-19T04:22:25;7.38;;;3.88;;
59145;SDS011;44928;53.074;6.646;2023-06-19T04:24:51;8.88;;;3.80;;
59145;SDS011;44928;53.074;6.646;2023-06-19T04:27:16;8.30;;;4.10;;
59145;SDS011;44928;53.074;6.646;2023-06-19T04:29:42;7.57;;;4.32;;
59145;SDS011;44928;53.074;6.646;2023-06-19T04:32:08;8.13;;;3.80;;
59145;SDS011;44928;53.074;6.646;2023-06-19T04:34:38;8.82;;;3.80;;
59145;SDS011;44928;53.074;6.646;2023-06-19T04:37:04;9.32;;;3.75;;
59145;SDS011;44928;53.074;6.646;2023-06-19T04:39:30;9.70;;;3.70;;
59145;SDS011;44928;53.074;6.646;2023-06-19T04:41:56;9.27;;;4.50;;
59145;SDS011;44928;53.074;6.646;2023-06-19T04:44:22;9.43;;;3.63;;
59145;SDS011;44928;53.074;6.646;2023-06-19T04:46:48;9.38;;;4.28;;
59145;SDS011;44928;53.074;6.646;2023-06-19T04:49:15;7.68;;;3.97;;
59145;SDS011;44928;53.074;6.646;2023-06-19T04:51:41;7.68;;;3.65;;
59145;SDS011;44928;53.074;6.646;2023-06-19T04:54:07;8.40;;;3.90;;
59145;SDS011;44928;53.074;6.646;2023-06-19T04:56:33;10.05;;;3.78;;
59145;SDS011;44928;53.074;6.646;2023-06-19T04:58:59;9.05;;;3.60;;
59145;SDS011;44928;53.074;6.646;2023-06-19T05:01:26;6.90;;;3.45;;
59145;SDS011;44928;53.074;6.646;2023-06-19T05:03:54;8.52;;;4.25;;
59145;SDS011;44928;53.074;6.646;2023-06-19T05:06:24;8.13;;;3.83;;
59145;SDS011;44928;53.074;6.646;2023-06-19T05:08:50;8.50;;;4.05;;
59145;SDS011;44928;53.074;6.646;2023-06-19T05:11:17;8.77;;;3.72;;
59145;SDS011;44928;53.074;6.646;2023-06-19T05:13:43;7.75;;;4.03;;
59145;SDS011;44928;53.074;6.646;2023-06-19T05:16:09;9.55;;;4.30;;
59145;SDS011;44928;53.074;6.646;2023-06-19T05:18:35;9.55;;;4.43;;
59145;SDS011;44928;53.074;6.646;2023-06-19T05:21:01;10.93;;;4.32;;
59145;SDS011;44928;53.074;6.646;2023-06-19T05:23:27;8.07;;;3.55;;
59145;SDS011;44928;53.074;6.646;2023-06-19T05:25:52;7.93;;;3.75;;
59145;SDS011;44928;53.074;6.646;2023-06-19T05:28:18;7.80;;;3.70;;
59145;SDS011;44928;53.074;6.646;2023-06-19T05:30:44;9.52;;;4.00;;
59145;SDS011;44928;53.074;6.646;2023-06-19T05:33:09;8.00;;;3.55;;
59145;SDS011;44928;53.074;6.646;2023-06-19T05:35:41;8.23;;;3.67;;
59145;SDS011;44928;53.074;6.646;2023-06-19T05:38:16;8.68;;;4.03;;
59145;SDS011;44928;53.074;6.646;2023-06-19T05:40:42;7.97;;;3.63;;
59145;SDS011;44928;53.074;6.646;2023-06-19T05:43:08;9.18;;;4.13;;
59145;SDS011;44928;53.074;6.646;2023-06-19T05:45:34;10.00;;;4.18;;
59145;SDS011;44928;53.074;6.646;2023-06-19T05:48:00;9.27;;;4.40;;
59145;SDS011;44928;53.074;6.646;2023-06-19T05:50:26;8.30;;;4.22;;
59145;SDS011;44928;53.074;6.646;2023-06-19T05:52:52;7.80;;;4.20;;
59145;SDS011;44928;53.074;6.646;2023-06-19T05:55:17;7.38;;;4.15;;
59145;SDS011;44928;53.074;6.646;2023-06-19T05:57:43;8.52;;;4.32;;
59145;SDS011;44928;53.074;6.646;2023-06-19T06:00:09;8.48;;;4.55;;
59145;SDS011;44928;53.074;6.646;2023-06-19T06:02:39;9.20;;;4.90;;
59145;SDS011;44928;53.074;6.646;2023-06-19T06:05:06;8.20;;;4.88;;
59145;SDS011;44928;53.074;6.646;2023-06-19T06:07:34;10.23;;;5.05;;
59145;SDS011;44928;53.074;6.646;2023-06-19T06:10:00;10.65;;;5.03;;
59145;SDS011;44928;53.074;6.646;2023-06-19T06:12:26;9.75;;;5.97;;
59145;SDS011;44928;53.074;6.646;2023-06-19T06:14:52;9.63;;;5.43;;
59145;SDS011;44928;53.074;6.646;2023-06-19T06:17:18;9.43;;;4.80;;
59145;SDS011;44928;53.074;6.646;2023-06-19T06:19:45;10.20;;;5.30;;
59145;SDS011;44928;53.074;6.646;2023-06-19T06:22:11;9.77;;;5.30;;
59145;SDS011;44928;53.074;6.646;2023-06-19T06:24:40;8.10;;;4.63;;
59145;SDS011;44928;53.074;6.646;2023-06-19T06:27:06;9.25;;;4.53;;
59145;SDS011;44928;53.074;6.646;2023-06-19T06:29:32;7.38;;;3.78;;
59145;SDS011;44928;53.074;6.646;2023-06-19T06:32:04;6.95;;;3.88;;
59145;SDS011;44928;53.074;6.646;2023-06-19T06:34:33;8.13;;;4.22;;
59145;SDS011;44928;53.074;6.646;2023-06-19T06:37:02;8.18;;;4.35;;
59145;SDS011;44928;53.074;6.646;2023-06-19T06:39:29;7.97;;;4.10;;
59145;SDS011;44928;53.074;6.646;2023-06-19T06:41:55;9.18;;;4.15;;
59145;SDS011;44928;53.074;6.646;2023-06-19T06:44:21;6.90;;;3.38;;
59145;SDS011;44928;53.074;6.646;2023-06-19T06:46:48;8.27;;;4.00;;
59145;SDS011;44928;53.074;6.646;2023-06-19T06:49:14;11.05;;;5.32;;
59145;SDS011;44928;53.074;6.646;2023-06-19T06:51:42;7.88;;;3.85;;
59145;SDS011;44928;53.074;6.646;2023-06-19T06:54:08;7.20;;;3.90;;
59145;SDS011;44928;53.074;6.646;2023-06-19T06:56:35;9.07;;;4.85;;
59145;SDS011;44928;53.074;6.646;2023-06-19T06:59:01;8.25;;;3.95;;
59145;SDS011;44928;53.074;6.646;2023-06-19T07:01:26;8.07;;;4.65;;
59145;SDS011;44928;53.074;6.646;2023-06-19T07:03:52;7.63;;;4.43;;
59145;SDS011;44928;53.074;6.646;2023-06-19T07:06:18;12.10;;;6.80;;
59145;SDS011;44928;53.074;6.646;2023-06-19T07:08:44;9.65;;;6.13;;
59145;SDS011;44928;53.074;6.646;2023-06-19T07:11:12;9.98;;;6.82;;
59145;SDS011;44928;53.074;6.646;2023-06-19T07:13:39;10.68;;;6.72;;
59145;SDS011;44928;53.074;6.646;2023-06-19T07:16:06;15.55;;;10.40;;
59145;SDS011;44928;53.074;6.646;2023-06-19T07:18:32;13.30;;;10.10;;
59145;SDS011;44928;53.074;6.646;2023-06-19T07:21:00;18.15;;;10.60;;
59145;SDS011;44928;53.074;6.646;2023-06-19T07:23:28;14.98;;;10.18;;
59145;SDS011;44928;53.074;6.646;2023-06-19T07:25:54;15.48;;;11.77;;
59145;SDS011;44928;53.074;6.646;2023-06-19T07:28:19;13.70;;;10.77;;
59145;SDS011;44928;53.074;6.646;2023-06-19T07:30:45;15.82;;;12.30;;
59145;SDS011;44928;53.074;6.646;2023-06-19T07:33:13;14.93;;;11.25;;
59145;SDS011;44928;53.074;6.646;2023-06-19T07:35:38;15.43;;;10.88;;
59145;SDS011;44928;53.074;6.646;2023-06-19T07:38:04;14.90;;;11.13;;
59145;SDS011;44928;53.074;6.646;2023-06-19T07:40:30;14.00;;;10.40;;
59145;SDS011;44928;53.074;6.646;2023-06-19T07:42:55;14.07;;;10.18;;
59145;SDS011;44928;53.074;6.646;2023-06-19T07:45:21;14.75;;;9.93;;
59145;SDS011;44928;53.074;6.646;2023-06-19T07:47:55;13.55;;;9.73;;
59145;SDS011;44928;53.074;6.646;2023-06-19T07:50:21;13.90;;;9.43;;
59145;SDS011;44928;53.074;6.646;2023-06-19T07:52:47;17.88;;;9.63;;
59145;SDS011;44928;53.074;6.646;2023-06-19T07:55:13;13.63;;;9.18;;
59145;SDS011;44928;53.074;6.646;2023-06-19T07:57:38;12.27;;;8.05;;
59145;SDS011;44928;53.074;6.646;2023-06-19T08:00:04;12.32;;;8.27;;
59145;SDS011;44928;53.074;6.646;2023-06-19T08:02:36;11.27;;;7.93;;
59145;SDS011;44928;53.074;6.646;2023-06-19T08:05:03;11.15;;;7.40;;
59145;SDS011;44928;53.074;6.646;2023-06-19T08:07:30;10.88;;;7.32;;
59145;SDS011;44928;53.074;6.646;2023-06-19T08:09:56;10.18;;;6.63;;
59145;SDS011;44928;53.074;6.646;2023-06-19T08:12:22;11.90;;;6.60;;
59145;SDS011;44928;53.074;6.646;2023-06-19T08:14:48;10.90;;;6.18;;
59145;SDS011;44928;53.074;6.646;2023-06-19T08:17:13;10.20;;;6.05;;
59145;SDS011;44928;53.074;6.646;2023-06-19T08:19:57;9.48;;;5.55;;
59145;SDS011;44928;53.074;6.646;2023-06-19T08:22:31;10.25;;;6.20;;
59145;SDS011;44928;53.074;6.646;2023-06-19T08:24:57;8.63;;;5.30;;
59145;SDS011;44928;53.074;6.646;2023-06-19T08:27:23;10.00;;;5.07;;
59145;SDS011;44928;53.074;6.646;2023-06-19T08:29:49;9.57;;;5.30;;
59145;SDS011;44928;53.074;6.646;2023-06-19T08:32:15;8.13;;;3.88;;
59145;SDS011;44928;53.074;6.646;2023-06-19T08:34:41;8.27;;;4.32;;
59145;SDS011;44928;53.074;6.646;2023-06-19T08:37:07;8.45;;;4.55;;
59145;SDS011;44928;53.074;6.646;2023-06-19T08:39:33;8.50;;;4.88;;
59145;SDS011;44928;53.074;6.646;2023-06-19T08:42:01;9.27;;;4.85;;
59145;SDS011;44928;53.074;6.646;2023-06-19T08:44:27;8.93;;;4.55;;
59145;SDS011;44928;53.074;6.646;2023-06-19T08:46:53;10.02;;;4.50;;
59145;SDS011;44928;53.074;6.646;2023-06-19T08:49:19;8.43;;;4.85;;
59145;SDS011;44928;53.074;6.646;2023-06-19T08:51:45;9.73;;;4.82;;
59145;SDS011;44928;53.074;6.646;2023-06-19T08:54:11;7.80;;;4.20;;
59145;SDS011;44928;53.074;6.646;2023-06-19T08:56:38;8.52;;;4.50;;
59145;SDS011;44928;53.074;6.646;2023-06-19T08:59:07;9.25;;;4.65;;
59145;SDS011;44928;53.074;6.646;2023-06-19T09:01:37;9.27;;;4.57;;
59145;SDS011;44928;53.074;6.646;2023-06-19T09:04:10;9.13;;;4.45;;
59145;SDS011;44928;53.074;6.646;2023-06-19T09:06:45;8.77;;;4.40;;
59145;SDS011;44928;53.074;6.646;2023-06-19T09:09:14;8.73;;;4.45;;
59145;SDS011;44928;53.074;6.646;2023-06-19T09:11:41;8.68;;;4.30;;
59145;SDS011;44928;53.074;6.646;2023-06-19T09:14:11;9.00;;;4.53;;
59145;SDS011;44928;53.074;6.646;2023-06-19T09:16:38;8.80;;;4.00;;
59145;SDS011;44928;53.074;6.646;2023-06-19T09:19:04;8.73;;;4.70;;
59145;SDS011;44928;53.074;6.646;2023-06-19T09:21:30;8.82;;;4.90;;
59145;SDS011;44928;53.074;6.646;2023-06-19T09:24:02;11.27;;;5.00;;
59145;SDS011;44928;53.074;6.646;2023-06-19T09:26:31;9.70;;;5.10;;
59145;SDS011;44928;53.074;6.646;2023-06-19T09:28:57;8.98;;;4.50;;
59145;SDS011;44928;53.074;6.646;2023-06-19T09:31:32;9.52;;;5.00;;
59145;SDS011;44928;53.074;6.646;2023-06-19T09:33:59;9.93;;;5.00;;
59145;SDS011;44928;53.074;6.646;2023-06-19T09:36:24;10.00;;;5.40;;
59145;SDS011;44928;53.074;6.646;2023-06-19T09:38:52;9.52;;;5.35;;
59145;SDS011;44928;53.074;6.646;2023-06-19T09:41:18;10.02;;;5.50;;
59145;SDS011;44928;53.074;6.646;2023-06-19T09:43:46;9.43;;;4.90;;
59145;SDS011;44928;53.074;6.646;2023-06-19T09:46:14;12.23;;;6.03;;
59145;SDS011;44928;53.074;6.646;2023-06-19T09:48:45;11.40;;;5.45;;
59145;SDS011;44928;53.074;6.646;2023-06-19T09:53:48;9.80;;;5.55;;
59145;SDS011;44928;53.074;6.646;2023-06-19T09:56:15;10.23;;;5.97;;
59145;SDS011;44928;53.074;6.646;2023-06-19T09:58:46;10.93;;;6.72;;
59145;SDS011;44928;53.074;6.646;2023-06-19T10:01:15;10.57;;;6.90;;
59145;SDS011;44928;53.074;6.646;2023-06-19T10:03:45;11.70;;;6.70;;
59145;SDS011;44928;53.074;6.646;2023-06-19T10:06:16;11.60;;;6.60;;
59145;SDS011;44928;53.074;6.646;2023-06-19T10:08:44;9.88;;;5.78;;
59145;SDS011;44928;53.074;6.646;2023-06-19T10:11:11;10.82;;;6.03;;
59145;SDS011;44928;53.074;6.646;2023-06-19T10:13:40;10.57;;;5.80;;
59145;SDS011;44928;53.074;6.646;2023-06-19T10:16:07;9.45;;;5.15;;
59145;SDS011;44928;53.074;6.646;2023-06-19T10:18:45;8.82;;;5.10;;
59145;SDS011;44928;53.074;6.646;2023-06-19T10:21:18;9.52;;;5.13;;
59145;SDS011;44928;53.074;6.646;2023-06-19T10:23:54;10.63;;;6.60;;
59145;SDS011;44928;53.074;6.646;2023-06-19T10:26:29;11.60;;;6.72;;
59145;SDS011;44928;53.074;6.646;2023-06-19T10:28:58;11.77;;;6.50;;
59145;SDS011;44928;53.074;6.646;2023-06-19T10:31:24;10.32;;;6.57;;
59145;SDS011;44928;53.074;6.646;2023-06-19T10:33:50;11.15;;;6.28;;
59145;SDS011;44928;53.074;6.646;2023-06-19T10:36:20;10.85;;;6.78;;
59145;SDS011;44928;53.074;6.646;2023-06-19T10:38:50;11.98;;;6.68;;
59145;SDS011;44928;53.074;6.646;2023-06-19T10:41:17;13.07;;;6.82;;
59145;SDS011;44928;53.074;6.646;2023-06-19T10:44:01;11.20;;;7.03;;
59145;SDS011;44928;53.074;6.646;2023-06-19T10:46:35;13.85;;;8.00;;
59145;SDS011;44928;53.074;6.646;2023-06-19T10:51:36;12.98;;;8.57;;
59145;SDS011;44928;53.074;6.646;2023-06-19T10:54:03;11.57;;;7.50;;
59145;SDS011;44928;53.074;6.646;2023-06-19T10:56:29;11.30;;;7.90;;
59145;SDS011;44928;53.074;6.646;2023-06-19T10:58:58;11.43;;;8.48;;
59145;SDS011;44928;53.074;6.646;2023-06-19T11:01:35;12.73;;;8.55;;
59145;SDS011;44928;53.074;6.646;2023-06-19T11:04:03;12.73;;;9.10;;
59145;SDS011;44928;53.074;6.646;2023-06-19T11:06:31;13.02;;;8.93;;
59145;SDS011;44928;53.074;6.646;2023-06-19T11:08:57;11.93;;;7.70;;
59145;SDS011;44928;53.074;6.646;2023-06-19T11:11:34;12.35;;;7.50;;
59145;SDS011;44928;53.074;6.646;2023-06-19T11:14:07;11.32;;;7.28;;
59145;SDS011;44928;53.074;6.646;2023-06-19T11:16:34;14.23;;;8.40;;
59145;SDS011;44928;53.074;6.646;2023-06-19T11:19:02;10.48;;;7.22;;
59145;SDS011;44928;53.074;6.646;2023-06-19T11:21:35;10.73;;;7.30;;
59145;SDS011;44928;53.074;6.646;2023-06-19T11:24:05;11.63;;;6.78;;
59145;SDS011;44928;53.074;6.646;2023-06-19T11:26:39;11.48;;;7.00;;
59145;SDS011;44928;53.074;6.646;2023-06-19T11:29:15;11.32;;;6.90;;
59145;SDS011;44928;53.074;6.646;2023-06-19T11:31:46;12.00;;;8.07;;
59145;SDS011;44928;53.074;6.646;2023-06-19T11:34:13;11.85;;;7.40;;
59145;SDS011;44928;53.074;6.646;2023-06-19T11:36:40;10.57;;;6.68;;
59145;SDS011;44928;53.074;6.646;2023-06-19T11:39:09;11.25;;;7.55;;
59145;SDS011;44928;53.074;6.646;2023-06-19T11:41:38;10.27;;;6.35;;
59145;SDS011;44928;53.074;6.646;2023-06-19T11:44:05;10.65;;;5.97;;
59145;SDS011;44928;53.074;6.646;2023-06-19T11:46:32;10.45;;;6.50;;
59145;SDS011;44928;53.074;6.646;2023-06-19T11:51:43;12.70;;;7.20;;
59145;SDS011;44928;53.074;6.646;2023-06-19T11:54:09;12.13;;;7.35;;
59145;SDS011;44928;53.074;6.646;2023-06-19T11:56:36;10.63;;;6.60;;
59145;SDS011;44928;53.074;6.646;2023-06-19T11:59:03;11.23;;;7.50;;
59145;SDS011;44928;53.074;6.646;2023-06-19T12:01:32;13.45;;;7.75;;
59145;SDS011;44928;53.074;6.646;2023-06-19T12:04:01;12.55;;;8.60;;
59145;SDS011;44928;53.074;6.646;2023-06-19T12:06:28;13.82;;;7.88;;
59145;SDS011;44928;53.074;6.646;2023-06-19T12:08:54;11.68;;;7.70;;
59145;SDS011;44928;53.074;6.646;2023-06-19T12:11:20;11.88;;;7.60;;
59145;SDS011;44928;53.074;6.646;2023-06-19T12:13:46;14.40;;;8.48;;
59145;SDS011;44928;53.074;6.646;2023-06-19T12:16:13;12.23;;;8.60;;
59145;SDS011;44928;53.074;6.646;2023-06-19T12:18:39;14.43;;;9.52;;
59145;SDS011;44928;53.074;6.646;2023-06-19T12:21:05;12.13;;;8.40;;
59145;SDS011;44928;53.074;6.646;2023-06-19T12:23:32;15.48;;;9.10;;
59145;SDS011;44928;53.074;6.646;2023-06-19T12:25:58;13.07;;;9.63;;
59145;SDS011;44928;53.074;6.646;2023-06-19T12:28:24;18.77;;;9.68;;
59145;SDS011;44928;53.074;6.646;2023-06-19T12:30:50;15.25;;;10.85;;
59145;SDS011;44928;53.074;6.646;2023-06-19T12:33:17;13.65;;;10.57;;
59145;SDS011;44928;53.074;6.646;2023-06-19T12:35:44;15.52;;;9.35;;
59145;SDS011;44928;53.074;6.646;2023-06-19T12:38:10;13.07;;;8.70;;
59145;SDS011;44928;53.074;6.646;2023-06-19T12:40:36;11.63;;;8.00;;
59145;SDS011;44928;53.074;6.646;2023-06-19T12:43:02;12.45;;;9.02;;
59145;SDS011;44928;53.074;6.646;2023-06-19T12:45:28;12.63;;;9.02;;
59145;SDS011;44928;53.074;6.646;2023-06-19T12:47:54;12.75;;;8.60;;
59145;SDS011;44928;53.074;6.646;2023-06-19T12:50:19;14.32;;;8.02;;
59145;SDS011;44928;53.074;6.646;2023-06-19T12:52:45;12.35;;;8.70;;
59145;SDS011;44928;53.074;6.646;2023-06-19T12:55:11;10.65;;;7.78;;
59145;SDS011;44928;53.074;6.646;2023-06-19T12:57:37;12.05;;;7.30;;
59145;SDS011;44928;53.074;6.646;2023-06-19T13:00:03;10.05;;;6.80;;
59145;SDS011;44928;53.074;6.646;2023-06-19T13:02:33;11.48;;;7.43;;
59145;SDS011;44928;53.074;6.646;2023-06-19T13:04:59;12.55;;;7.35;;
59145;SDS011;44928;53.074;6.646;2023-06-19T13:07:25;11.27;;;6.65;;
59145;SDS011;44928;53.074;6.646;2023-06-19T13:09:50;12.00;;;7.88;;
59145;SDS011;44928;53.074;6.646;2023-06-19T13:12:16;10.88;;;6.78;;
59145;SDS011;44928;53.074;6.646;2023-06-19T13:14:42;11.23;;;7.05;;
59145;SDS011;44928;53.074;6.646;2023-06-19T13:17:07;11.95;;;6.93;;
59145;SDS011;44928;53.074;6.646;2023-06-19T13:19:33;10.57;;;7.30;;
59145;SDS011;44928;53.074;6.646;2023-06-19T13:21:59;10.70;;;6.80;;
59145;SDS011;44928;53.074;6.646;2023-06-19T13:24:25;11.13;;;7.18;;
59145;SDS011;44928;53.074;6.646;2023-06-19T13:26:52;11.48;;;7.65;;
59145;SDS011;44928;53.074;6.646;2023-06-19T13:29:18;13.32;;;8.48;;
59145;SDS011;44928;53.074;6.646;2023-06-19T13:31:44;10.77;;;6.45;;
59145;SDS011;44928;53.074;6.646;2023-06-19T13:34:11;11.45;;;6.68;;
59145;SDS011;44928;53.074;6.646;2023-06-19T13:36:36;9.80;;;5.80;;
59145;SDS011;44928;53.074;6.646;2023-06-19T13:39:03;11.30;;;6.78;;
59145;SDS011;44928;53.074;6.646;2023-06-19T13:41:29;11.48;;;8.02;;
59145;SDS011;44928;53.074;6.646;2023-06-19T13:43:57;9.25;;;5.80;;
59145;SDS011;44928;53.074;6.646;2023-06-19T13:46:24;12.05;;;8.00;;
59145;SDS011;44928;53.074;6.646;2023-06-19T13:48:50;10.80;;;7.03;;
59145;SDS011;44928;53.074;6.646;2023-06-19T13:51:19;10.13;;;6.80;;
59145;SDS011;44928;53.074;6.646;2023-06-19T13:53:46;10.77;;;7.07;;
59145;SDS011;44928;53.074;6.646;2023-06-19T13:56:12;12.35;;;6.60;;
59145;SDS011;44928;53.074;6.646;2023-06-19T13:58:39;10.55;;;5.88;;
59145;SDS011;44928;53.074;6.646;2023-06-19T14:01:04;15.18;;;9.07;;
59145;SDS011;44928;53.074;6.646;2023-06-19T14:03:31;13.55;;;6.55;;
59145;SDS011;44928;53.074;6.646;2023-06-19T14:05:57;12.52;;;7.32;;
59145;SDS011;44928;53.074;6.646;2023-06-19T14:08:23;13.30;;;7.30;;
59145;SDS011;44928;53.074;6.646;2023-06-19T14:10:49;9.90;;;5.72;;
59145;SDS011;44928;53.074;6.646;2023-06-19T14:13:15;9.02;;;5.03;;
59145;SDS011;44928;53.074;6.646;2023-06-19T14:15:41;9.00;;;5.10;;
59145;SDS011;44928;53.074;6.646;2023-06-19T14:18:07;9.95;;;4.88;;
59145;SDS011;44928;53.074;6.646;2023-06-19T14:20:33;10.55;;;5.00;;
59145;SDS011;44928;53.074;6.646;2023-06-19T14:22:59;10.88;;;5.22;;
59145;SDS011;44928;53.074;6.646;2023-06-19T14:25:25;9.98;;;4.65;;
59145;SDS011;44928;53.074;6.646;2023-06-19T14:27:51;10.73;;;5.68;;
59145;SDS011;44928;53.074;6.646;2023-06-19T14:30:17;10.52;;;5.43;;
59145;SDS011;44928;53.074;6.646;2023-06-19T14:32:43;9.43;;;5.32;;
59145;SDS011;44928;53.074;6.646;2023-06-19T14:35:09;9.77;;;5.22;;
59145;SDS011;44928;53.074;6.646;2023-06-19T14:37:35;9.95;;;5.07;;
59145;SDS011;44928;53.074;6.646;2023-06-19T14:40:01;8.88;;;4.97;;
59145;SDS011;44928;53.074;6.646;2023-06-19T14:42:27;10.57;;;5.10;;
59145;SDS011;44928;53.074;6.646;2023-06-19T14:44:54;9.05;;;5.15;;
59145;SDS011;44928;53.074;6.646;2023-06-19T14:47:19;14.27;;;5.80;;
59145;SDS011;44928;53.074;6.646;2023-06-19T14:49:45;9.65;;;5.32;;